createdAt,value
2019-03-12T00:03:37.183Z,6.65
2019-03-12T00:07:39.150Z,9.07
2019-03-12T00:11:41.066Z,5.30
2019-03-12T00:15:43.046Z,11.03
2019-03-12T00:19:44.949Z,9.30
2019-03-12T00:23:46.843Z,7.65
2019-03-12T00:27:48.807Z,8.88
2019-03-12T00:31:51.678Z,7.63
2019-03-12T00:35:53.583Z,10.47
2019-03-12T00:39:55.487Z,8.48
2019-03-12T00:43:57.395Z,6.60
2019-03-12T00:47:59.271Z,6.77
2019-03-12T00:52:01.699Z,7.93
2019-03-12T00:56:03.600Z,7.77
2019-03-12T01:00:18.400Z,10.70
2019-03-12T01:04:20.297Z,7.37
2019-03-12T01:08:22.197Z,9.07
2019-03-12T01:12:24.081Z,8.10
2019-03-12T01:16:25.987Z,7.77
2019-03-12T01:20:27.887Z,9.50
2019-03-12T01:24:29.785Z,8.27
2019-03-12T01:28:31.748Z,7.37
2019-03-12T01:32:33.721Z,9.77
2019-03-12T01:36:35.615Z,6.93
2019-03-12T01:40:37.514Z,6.20
2019-03-12T01:44:39.415Z,8.35
2019-03-12T01:48:41.313Z,4.70
2019-03-12T01:52:43.277Z,7.20
2019-03-12T01:56:45.263Z,5.83
2019-03-12T02:00:47.165Z,5.62
2019-03-12T02:04:49.069Z,4.70
2019-03-12T02:08:51.009Z,6.60
2019-03-12T02:12:52.900Z,4.70
2019-03-12T02:16:54.871Z,5.67
2019-03-12T02:20:56.780Z,5.97
2019-03-12T02:24:58.679Z,4.17
2019-03-12T02:29:00.631Z,5.80
2019-03-12T02:33:02.549Z,5.83
2019-03-12T02:37:05.513Z,4.57
2019-03-12T02:41:07.415Z,5.57
2019-03-12T02:45:16.931Z,8.53
2019-03-12T02:49:19.077Z,3.97
2019-03-12T02:53:20.972Z,6.47
2019-03-12T02:57:22.885Z,5.63
2019-03-12T03:01:24.795Z,5.87
2019-03-12T03:05:26.825Z,4.37
2019-03-12T03:09:28.715Z,6.23
2019-03-12T03:13:31.906Z,4.87
2019-03-12T03:17:33.832Z,8.18
2019-03-12T03:21:35.719Z,6.70
2019-03-12T03:25:37.624Z,5.13
2019-03-12T03:29:39.572Z,9.85
2019-03-12T03:33:41.497Z,4.27
2019-03-12T03:37:43.361Z,5.27
2019-03-12T03:41:45.257Z,6.28
2019-03-12T03:45:47.152Z,4.72
2019-03-12T03:49:49.054Z,3.57
2019-03-12T03:53:50.993Z,7.03
2019-03-12T03:57:52.885Z,7.07
2019-03-12T04:01:54.793Z,6.50
2019-03-12T04:05:56.706Z,10.80
2019-03-12T04:09:58.610Z,6.10
2019-03-12T04:14:00.509Z,7.37
2019-03-12T04:18:02.415Z,7.57
2019-03-12T04:22:04.455Z,7.13
2019-03-12T04:26:06.356Z,7.97
2019-03-12T04:30:16.957Z,9.70
2019-03-12T04:34:18.922Z,9.03
2019-03-12T04:38:20.819Z,8.20
2019-03-12T04:42:22.723Z,11.63
2019-03-12T04:46:24.638Z,11.90
2019-03-12T04:50:26.533Z,13.67
2019-03-12T04:54:28.481Z,13.50
2019-03-12T04:58:30.385Z,12.80
2019-03-12T05:02:32.294Z,14.93
2019-03-12T05:06:34.210Z,21.20
2019-03-12T05:10:37.100Z,14.07
2019-03-12T05:14:39.189Z,17.02
2019-03-12T05:18:41.274Z,16.47
2019-03-12T05:22:43.164Z,16.47
2019-03-12T05:26:45.074Z,20.97
2019-03-12T05:30:46.972Z,18.23
2019-03-12T05:34:49.161Z,16.93
2019-03-12T05:38:51.065Z,14.93
2019-03-12T05:42:52.971Z,14.90
2019-03-12T05:46:54.880Z,16.63
2019-03-12T05:50:56.820Z,16.83
2019-03-12T05:54:58.824Z,17.10
2019-03-12T05:59:00.732Z,17.30
2019-03-12T06:03:02.639Z,16.67
2019-03-12T06:07:18.875Z,15.50
2019-03-12T06:11:20.773Z,16.33
2019-03-12T06:15:22.692Z,13.43
2019-03-12T06:19:24.601Z,19.57
2019-03-12T06:23:26.514Z,18.93
2019-03-12T06:27:28.417Z,13.87
2019-03-12T06:31:34.963Z,13.23
2019-03-12T06:35:54.777Z,13.93
2019-03-12T06:40:01.544Z,15.23
2019-03-12T06:44:05.090Z,12.87
2019-03-12T06:48:14.375Z,10.43
2019-03-12T06:52:28.257Z,13.67
2019-03-12T06:56:29.932Z,11.30
2019-03-12T07:00:45.080Z,13.58
2019-03-12T07:04:51.541Z,16.80
2019-03-12T07:08:57.837Z,11.37
2019-03-12T07:13:01.468Z,12.90
2019-03-12T07:17:07.957Z,11.30
2019-03-12T07:21:11.480Z,12.20
2019-03-12T07:25:20.255Z,12.13
2019-03-12T07:29:41.926Z,9.40
2019-03-12T07:33:45.466Z,15.08
2019-03-12T07:37:57.835Z,14.30
2019-03-12T07:41:59.464Z,9.17
2019-03-12T07:46:15.132Z,14.90
2019-03-12T07:50:24.398Z,12.07
2019-03-12T07:54:30.365Z,15.40
2019-03-12T07:58:40.117Z,10.37
2019-03-12T08:02:55.630Z,8.33
2019-03-12T08:07:04.700Z,9.90
2019-03-12T08:11:08.242Z,10.33
2019-03-12T08:15:30.787Z,13.50
2019-03-12T08:19:37.015Z,8.27
2019-03-12T08:23:49.309Z,10.53
2019-03-12T08:27:59.653Z,9.57
2019-03-12T08:32:06.048Z,12.70
2019-03-12T08:36:07.723Z,7.37
2019-03-12T08:40:10.338Z,6.83
2019-03-12T08:44:30.024Z,10.07
2019-03-12T08:48:33.674Z,6.37
2019-03-12T08:52:39.666Z,8.10
2019-03-12T08:56:43.216Z,10.63
2019-03-12T09:00:52.952Z,9.58
2019-03-12T09:05:12.810Z,14.27
2019-03-12T09:09:19.137Z,12.83
2019-03-12T09:13:20.804Z,7.17
2019-03-12T09:17:27.059Z,7.23
2019-03-12T09:21:34.454Z,8.87
2019-03-12T09:25:37.991Z,6.92
2019-03-12T09:29:39.671Z,13.45
2019-03-12T09:33:59.460Z,12.75
2019-03-12T09:38:06.067Z,13.67
2019-03-12T09:42:18.859Z,7.03
2019-03-12T09:46:25.196Z,9.30
2019-03-12T09:50:28.742Z,12.07
2019-03-12T09:54:39.313Z,15.03
2019-03-12T09:58:48.595Z,10.33
2019-03-12T10:02:52.151Z,9.87
2019-03-12T10:07:01.589Z,10.63
2019-03-12T10:11:07.713Z,9.70
2019-03-12T10:15:27.178Z,13.97
2019-03-12T10:19:42.603Z,10.07
2019-03-12T10:23:52.103Z,9.63
2019-03-12T10:27:56.705Z,9.58
2019-03-12T10:32:00.263Z,10.03
2019-03-12T10:36:20.264Z,10.53
2019-03-12T10:40:35.875Z,7.13
2019-03-12T10:44:39.423Z,10.68
2019-03-12T10:48:41.500Z,10.15
2019-03-12T10:52:43.419Z,6.43
2019-03-12T10:56:45.313Z,5.57
2019-03-12T11:00:47.285Z,7.17
2019-03-12T11:04:49.193Z,12.15
2019-03-12T11:08:51.099Z,13.13
2019-03-12T11:12:53.000Z,15.77
2019-03-12T11:16:54.919Z,9.83
2019-03-12T11:20:58.715Z,9.23
2019-03-12T11:25:00.406Z,9.57
2019-03-12T11:29:02.304Z,8.03
2019-03-12T11:33:04.260Z,10.70
2019-03-12T11:37:06.182Z,7.67
2019-03-12T11:41:08.149Z,13.53
2019-03-12T11:45:17.075Z,8.87
2019-03-12T11:49:16.483Z,6.43
2019-03-12T11:53:18.369Z,9.30
2019-03-12T11:57:20.344Z,12.17
2019-03-12T12:01:22.344Z,8.97
2019-03-12T12:05:24.229Z,7.40
2019-03-12T12:09:26.129Z,5.77
2019-03-12T12:13:28.044Z,6.73
2019-03-12T12:17:29.942Z,8.37
2019-03-12T12:21:32.218Z,8.03
2019-03-12T12:25:34.200Z,6.37
2019-03-12T12:29:36.114Z,7.53
2019-03-12T12:33:37.995Z,8.30
2019-03-12T12:37:40.033Z,6.28
2019-03-12T12:41:41.936Z,8.20
2019-03-12T12:45:44.998Z,4.97
2019-03-12T12:49:46.948Z,6.63
2019-03-12T12:53:48.842Z,7.63
2019-03-12T12:57:50.744Z,7.17
2019-03-12T13:01:52.652Z,6.20
2019-03-12T13:05:55.781Z,4.70
2019-03-12T13:09:57.839Z,6.77
2019-03-12T13:13:59.744Z,7.83
2019-03-12T13:18:01.666Z,10.03
2019-03-12T13:22:03.599Z,7.63
2019-03-12T13:26:05.498Z,8.27
2019-03-12T13:30:16.954Z,6.20
2019-03-12T13:34:18.849Z,4.90
2019-03-12T13:38:20.765Z,5.43
2019-03-12T13:42:22.848Z,3.57
2019-03-12T13:46:24.757Z,6.30
2019-03-12T13:50:27.126Z,5.43
2019-03-12T13:54:29.978Z,3.30
2019-03-12T13:58:32.292Z,8.00
2019-03-12T14:02:34.214Z,5.17
2019-03-12T14:06:37.591Z,4.40
2019-03-12T14:10:39.732Z,7.47
2019-03-12T14:14:41.912Z,3.72
2019-03-12T14:18:43.829Z,4.23
2019-03-12T14:22:45.748Z,4.92
2019-03-12T14:26:47.665Z,7.03
2019-03-12T14:30:49.719Z,4.73
2019-03-12T14:34:51.622Z,4.03
2019-03-12T14:38:53.616Z,4.43
2019-03-12T14:42:55.524Z,6.70
2019-03-12T14:46:57.441Z,3.80
2019-03-12T14:50:59.350Z,4.00
2019-03-12T14:55:01.259Z,4.43
2019-03-12T14:59:03.710Z,4.23
2019-03-12T15:03:05.775Z,5.07
2019-03-12T15:07:07.711Z,3.73
2019-03-12T15:11:09.603Z,4.37
2019-03-12T15:15:13.513Z,4.03
2019-03-12T15:19:15.669Z,4.63
2019-03-12T15:23:17.935Z,3.70
2019-03-12T15:27:19.835Z,3.33
2019-03-12T15:31:21.736Z,4.87
2019-03-12T15:35:23.633Z,3.67
2019-03-12T15:39:25.524Z,8.40
2019-03-12T15:43:27.431Z,3.15
2019-03-12T15:47:29.339Z,3.52
2019-03-12T15:51:32.481Z,6.10
2019-03-12T15:55:34.365Z,2.90
2019-03-12T15:59:36.283Z,2.93
2019-03-12T16:03:38.197Z,4.15
2019-03-12T16:07:40.111Z,4.28
2019-03-12T16:11:42.016Z,3.80
2019-03-12T16:15:43.903Z,2.47
2019-03-12T16:19:45.839Z,2.72
2019-03-12T16:23:47.699Z,3.22
2019-03-12T16:27:49.598Z,4.70
2019-03-12T16:31:52.685Z,1.30
2019-03-12T16:35:54.570Z,5.07
2019-03-12T16:39:56.789Z,3.77
2019-03-12T16:43:59.651Z,2.50
2019-03-12T16:48:01.758Z,3.03
2019-03-12T16:52:04.611Z,5.20
2019-03-12T16:56:06.583Z,5.13
2019-03-12T17:00:15.285Z,3.50
2019-03-12T17:04:17.195Z,3.30
2019-03-12T17:08:19.178Z,6.57
2019-03-12T17:12:21.073Z,2.30
2019-03-12T17:16:22.956Z,4.77
2019-03-12T17:20:25.135Z,5.57
2019-03-12T17:24:27.011Z,1.50
2019-03-12T17:28:28.932Z,6.03
2019-03-12T17:32:30.842Z,4.20
2019-03-12T17:36:32.727Z,3.63
2019-03-12T17:40:34.633Z,3.50
2019-03-12T17:44:36.531Z,4.85
2019-03-12T17:48:38.434Z,3.47
2019-03-12T17:52:40.344Z,1.95
2019-03-12T17:56:42.229Z,2.10
2019-03-12T18:00:45.416Z,3.07
2019-03-12T18:04:47.317Z,2.83
2019-03-12T18:08:49.219Z,4.35
2019-03-12T18:12:51.112Z,2.03
2019-03-12T18:16:53.010Z,4.63
2019-03-12T18:20:54.982Z,2.73
2019-03-12T18:24:56.882Z,6.10
2019-03-12T18:28:59.401Z,5.70
2019-03-12T18:33:01.356Z,5.03
2019-03-12T18:37:10.578Z,3.10
2019-03-12T18:41:15.236Z,1.35
2019-03-12T18:45:23.413Z,1.67
2019-03-12T18:49:25.305Z,2.63
2019-03-12T18:53:27.207Z,2.33
2019-03-12T18:57:29.112Z,3.60
2019-03-12T19:01:32.481Z,3.20
2019-03-12T19:05:34.398Z,4.53
2019-03-12T19:09:36.304Z,4.50
2019-03-12T19:13:38.283Z,2.77
2019-03-12T19:17:41.209Z,2.55
2019-03-12T19:21:43.193Z,3.43
2019-03-12T19:25:48.247Z,2.47
2019-03-12T19:29:50.152Z,2.25
2019-03-12T19:33:53.428Z,1.60
2019-03-12T19:37:57.415Z,5.27
2019-03-12T19:41:59.326Z,1.67
2019-03-12T19:46:01.209Z,4.07
2019-03-12T19:50:06.165Z,4.57
2019-03-12T19:54:08.057Z,2.43
2019-03-12T19:58:10.248Z,2.87
2019-03-12T20:02:16.434Z,1.80
2019-03-12T20:06:15.729Z,2.70
2019-03-12T20:10:57.395Z,2.10
2019-03-12T20:15:21.318Z,2.53
2019-03-12T20:19:56.593Z,3.00
2019-03-12T20:24:55.227Z,6.17
2019-03-12T20:29:21.438Z,2.10
2019-03-12T20:33:39.702Z,5.30
2019-03-12T20:38:25.682Z,4.53
2019-03-12T20:42:57.764Z,3.70
2019-03-12T20:47:38.708Z,5.23
2019-03-12T20:52:18.822Z,3.90
2019-03-12T20:56:51.921Z,2.63
2019-03-12T21:01:23.184Z,1.87
2019-03-12T21:06:16.677Z,2.83
2019-03-12T21:11:00.688Z,3.00
2019-03-12T21:15:34.248Z,5.90
2019-03-12T21:20:13.681Z,4.10
2019-03-12T21:24:42.430Z,3.83
2019-03-12T21:29:23.362Z,1.42
2019-03-12T21:33:25.260Z,1.93
2019-03-12T21:37:27.160Z,1.70
2019-03-12T21:41:29.116Z,4.37
2019-03-12T21:45:31.008Z,2.23
2019-03-12T21:49:33.256Z,3.70
2019-03-12T21:53:35.148Z,1.87
2019-03-12T21:57:37.063Z,3.58
2019-03-12T22:01:38.958Z,3.02
2019-03-12T22:05:40.958Z,3.50
2019-03-12T22:09:42.861Z,5.90
2019-03-12T22:13:44.767Z,3.63
2019-03-12T22:17:47.501Z,2.35
2019-03-12T22:21:54.070Z,3.20
2019-03-12T22:25:56.198Z,2.50
2019-03-12T22:29:58.044Z,2.57
2019-03-12T22:33:59.943Z,4.27
2019-03-12T22:38:01.865Z,1.13
2019-03-12T22:42:03.933Z,2.87
2019-03-12T22:46:05.889Z,9.23
2019-03-12T22:50:18.274Z,4.60
2019-03-12T22:58:47.241Z,6.97
2019-03-12T23:03:07.418Z,4.77
2019-03-12T23:07:27.068Z,3.70
2019-03-12T23:11:30.564Z,2.60
2019-03-12T23:15:32.871Z,2.20
2019-03-12T23:19:34.846Z,2.50
2019-03-12T23:23:36.753Z,1.55
2019-03-12T23:27:38.648Z,2.10
2019-03-12T23:31:40.634Z,2.27
2019-03-12T23:35:42.537Z,4.10
2019-03-12T23:39:44.473Z,30.27
2019-03-12T23:43:46.424Z,8.38
2019-03-12T23:47:50.334Z,3.33
2019-03-12T23:51:51.996Z,1.20
2019-03-12T23:55:54.125Z,10.77
2019-03-12T23:59:56.143Z,9.57
